METAR Data
IDs: Format: Raw Decoded Include TAF

Data at: 0615 UTC 07 Dec 2022

KLKV 070553Z AUTO 34005KT 10SM CLR M14/M17 A3013 RMK AO2 SLP258 T11441167 10000 21144 51008 FZRANO
KLKV 070453Z AUTO 33007KT 10SM CLR M12/M14 A3012 RMK AO2 SLP256 T11221139 FZRANO
KLKV 070353Z AUTO 34007KT 10SM CLR M11/M12 A3011 RMK AO2 SLP254 T11111122 FZRANO
KLKV 070253Z AUTO 33005KT 10SM CLR M10/M12 A3010 RMK AO2 SLP248 T11001117 51008 FZRANO
KLKV 070153Z AUTO 00000KT 10SM CLR M06/M08 A3009 RMK AO2 SLP239 T10611078 FZRANO
KLKV 070103Z AUTO 23004KT 10SM SCT027 M03/M06 A3008 RMK AO2 FZRANO
KLKV 070053Z AUTO 23003KT 10SM BKN027 M02/M05 A3008 RMK AO2 SLP227 T10221050 FZRANO
KLKV 062353Z AUTO 00000KT 10SM OVC027 M01/M04 A3007 RMK AO2 SLP219 T10061044 10017 21006 53002 FZRANO
KLKV 062253Z AUTO 12003KT 10SM OVC027 01/M04 A3007 RMK AO2 SLP214 T00061044 FZRANO
KLKV 062153Z AUTO 15004KT 10SM OVC027 01/M04 A3006 RMK AO2 SLP216 T00061044 FZRANO
KLKV 062053Z AUTO 15007KT 10SM OVC027 01/M04 A3007 RMK AO2 SLP217 T00061044 58005 FZRANO
KLKV 061953Z AUTO 00000KT 10SM OVC025 00/M04 A3007 RMK AO2 SLP219 T00001039 FZRANO
KLKV 061853Z AUTO 00000KT 10SM OVC025 00/M03 A3009 RMK AO2 SLP224 T00001033 FZRANO
KLKV 061753Z AUTO 12003KT 10SM OVC023 01/M02 A3008 RMK AO2 SLP220 T00061022 10006 21039 53014 FZRANO
KLKV 061653Z AUTO 00000KT 10SM OVC023 M02/M02 A3006 RMK AO2 SLP217 T10171022 FZRANO
KLKV 061553Z AUTO 00000KT 10SM OVC023 M03/M04 A3005 RMK AO2 SLP215 T10331039 FZRANO
KLKV 061513Z AUTO 35003KT 7SM SCT002 OVC023 M03/M04 A3004 RMK AO2 FZRANO
KLKV 061453Z AUTO 00000KT 10SM OVC002 M04/M04 A3004 RMK AO2 SLP213 T10391044 53009 FZRANO
KLKV 061353Z AUTO 00000KT 10SM BKN002 OVC021 M04/M04 A3002 RMK AO2 SLP203 T10391044 FZRANO
KLKV 061340Z AUTO 00000KT 10SM FEW002 OVC021 M04/M04 A3001 RMK AO2 FZRANO
KLKV 061253Z AUTO 00000KT 10SM OVC023 M03/M04 A3000 RMK AO2 SLP197 T10331044 FZRANO
KLKV 061153Z AUTO 00000KT 10SM FEW018 OVC025 M03/M04 A3001 RMK AO2 UPB07E18 SLP196 P0000 60000 70012 T10331039 11033 21039 50005 FZRANO
KLKV 061112Z AUTO 00000KT 10SM UP SCT003 OVC021 M03/M04 A3001 RMK AO2 UPB07 P0000 FZRANO
KLKV 061053Z AUTO 01003KT 10SM OVC003 M03/M04 A3001 RMK AO2 SLP194 T10331039 FZRANO
KLKV 060953Z AUTO 34003KT 10SM OVC003 M04/M04 A3001 RMK AO2 SLP193 T10391044 FZRANO
KLKV 060926Z AUTO 31003KT 10SM BKN003 BKN019 OVC027 M04/M04 A3000 RMK AO2 FZRANO
KLKV 060853Z AUTO 00000KT 10SM FEW003 SCT021 OVC029 M04/M04 A2999 RMK AO2 UPB0757E20 SLP183 P0000 60000 T10391044 51004 FZRANO
KLKV 060821Z AUTO 15003KT 10SM FEW022 OVC029 M04/M04 A2999 RMK AO2 UPB0757E20 P0000 FZRANO
KLKV 060810Z AUTO 15003KT 10SM UP SCT020 OVC031 M03/M04 A2999 RMK AO2 UPB0757 P0000 FZRANO
KLKV 060653Z AUTO 00000KT 10SM FEW002 OVC016 M03/M04 A2998 RMK AO2 SLP181 T10331039 FZRANO
KLKV 060649Z AUTO 20003KT 10SM FEW002 OVC016 M03/M04 A2998 RMK AO2 FZRANO
KLKV 060619Z AUTO 00000KT 10SM SCT002 OVC014 M03/M04 A2998 RMK AO2 FZRANO
KLKV 060559Z AUTO 00000KT 10SM BKN002 OVC011 M03/M04 A2997 RMK AO2 FZRANO
KLKV 060553Z AUTO 00000KT 10SM SCT002 OVC011 M03/M04 A2998 RMK AO2 SLP182 60000 T10331039 11011 21039 51016 FZRANO
KLKV 060540Z AUTO 00000KT 6SM BR BKN002 OVC011 M04/M04 A2997 RMK AO2 FZRANO
KLKV 060534Z AUTO 24004KT 2 1/2SM BR OVC002 M04/M04 A2997 RMK AO2 FZRANO
KLKV 060510Z AUTO 19006KT 8SM BKN002 BKN012 OVC032 M03/M03 A2996 RMK AO2 FZRANO
KLKV 060502Z AUTO 17005KT 10SM FEW002 BKN024 OVC032 M03/M03 A2996 RMK AO2 FZRANO
KLKV 060453Z AUTO 17006KT 10SM SCT026 OVC034 M03/M03 A2996 RMK AO2 SLP178 T10281033 FZRANO
KLKV 060434Z AUTO 13006KT 10SM FEW024 OVC032 M03/M04 A2995 RMK AO2 FZRANO
KLKV 060353Z AUTO 00000KT 10SM FEW002 BKN017 OVC027 M03/M03 A2994 RMK AO2 SNE0256 SLP175 P0000 T10281033 FZRANO
KLKV 060253Z AUTO 15007KT 9SM -SN FEW003 OVC028 M03/M03 A2992 RMK AO2 SNB16 SLP170 P0000 60000 T10281033 52007 FZRANO
KLKV 060249Z AUTO 15007KT 9SM -SN FEW003 OVC030 M03/M03 A2992 RMK AO2 SNB16 P0000 FZRANO
KLKV 060243Z AUTO 16005KT 4SM -SN BR FEW003 OVC028 M03/M03 A2992 RMK AO2 SNB16 P0000 FZRANO
KLKV 060232Z AUTO 25003KT 2SM -SN BR SCT003 BKN030 OVC036 M03/M03 A2992 RMK AO2 VIS 1 1/2V4 SNB16 P0000 FZRANO
KLKV 060203Z AUTO 22004KT 10SM FEW003 OVC036 M02/M03 A2992 RMK AO2 FZRANO
KLKV 060153Z AUTO 17006KT 10SM SCT023 OVC036 M02/M03 A2991 RMK AO2 SLP168 T10221028 FZRANO
KLKV 060126Z AUTO 17006KT 10SM BKN023 OVC036 M02/M02 A2991 RMK AO2 FZRANO
KLKV 060057Z AUTO 16007KT 10SM OVC032 M01/M02 A2990 RMK AO2 FZRANO
KLKV 060053Z AUTO 16008KT 10SM BKN029 OVC035 M01/M02 A2990 RMK AO2 UPE06 SLP161 P0000 T10111022 FZRANO
KLKV 060036Z AUTO 16009KT 10SM OVC029 M01/M02 A2990 RMK AO2 UPE06 P0000 FZRANO
KLKV 060000Z AUTO 15008KT 10SM UP FEW009 SCT026 OVC031 00/M02 A2990 RMK AO2 P0000 FZRANO
KLKV 052353Z AUTO 15008KT 10SM UP FEW009 BKN026 OVC031 00/M02 A2990 RMK AO2 UPB50 SLP159 P0000 60006 T00001017 10039 21006 53001 FZRANO
KLKV 052324Z AUTO 15006KT 10SM BKN024 BKN033 OVC042 M01/M03 A2989 RMK AO2 FZRANO
KLKV 052309Z AUTO 14006KT 10SM SCT024 SCT033 OVC042 01/M03 A2989 RMK AO2 FZRANO
KLKV 052253Z AUTO 12006KT 10SM BKN026 BKN039 OVC060 01/M01 A2989 RMK AO2 SLP156 T00111011 FZRANO
KLKV 052227Z AUTO 14008KT 10SM BKN029 OVC036 02/M01 A2988 RMK AO2 FZRANO
KLKV 052153Z AUTO 14009KT 10SM OVC035 02/M01 A2988 RMK AO2 RAE52 SLP153 P0000 T00171011 FZRANO
KLKV 052135Z AUTO 15010KT 10SM -RA OVC033 02/M01 A2989 RMK AO2 P0000 FZRANO
KLKV 052058Z AUTO 13005KT 10SM OVC028 03/M01 A2989 RMK AO2 RAE57 P0000
KLKV 052053Z AUTO 13006KT 10SM -RA FEW022 OVC030 03/M01 A2989 RMK AO2 RAE1959B40 SLP149 P0000 60006 T00331006 58007
KLKV 051957Z AUTO 13006KT 9SM -RA SCT034 OVC043 03/01 A2990 RMK AO2 P0000
KLKV 051953Z AUTO 13006KT 1SM -RA BR FEW029 BKN037 OVC044 03/01 A2990 RMK AO2 RAB07E23B49UPB23E27B45E47SNB27E45 SLP154 P0006 T00280011
KLKV 051947Z AUTO 14006KT 1SM BR SCT027 OVC041 02/01 A2990 RMK AO2 RAB07E23UPB23E27B45E47SNB27E45 P0006 FZRANO
KLKV 051936Z AUTO 15007KT 6SM -SN BR FEW018 OVC031 01/M01 A2991 RMK AO2 RAB07E23UPB23E27SNB27 P0006 FZRANO
KLKV 051930Z AUTO 13007KT 3SM -SN BR FEW018 OVC028 01/M01 A2991 RMK AO2 RAB07E23UPB23E27SNB27 P0006 FZRANO
KLKV 051922Z AUTO 13007KT 1 1/2SM -RA BR FEW020 BKN026 OVC034 01/M01 A2991 RMK AO2 VIS 1V4 RAB07 P0006 FZRANO
KLKV 051917Z AUTO 12006KT 2 1/2SM -RA BR FEW017 OVC033 02/00 A2991 RMK AO2 RAB07 P0000 FZRANO
KLKV 051853Z AUTO 10004KT 10SM BKN037 BKN046 OVC060 03/01 A2992 RMK AO2 SLP157 T00280011
KLKV 051830Z AUTO 00000KT 10SM SCT008 BKN034 OVC060 02/00 A2992 RMK AO2 FZRANO
KLKV 051824Z AUTO 00000KT 10SM SCT008 BKN029 OVC055 02/00 A2992 RMK AO2 FZRANO